首页
METAR-TAF:

METAR-TAF

机场 :

恩贾梅纳国际机场

恩賈梅納, 乍得

纬度: 12-08N, 经度: 015-02E, 海拔: 295米

当前天气观测

该预报发布于1小时和3分钟前的10:00 UTC
风速5节,风向,在之间变化
温度 31°C
湿度 17%
气压 1011 hPa
能见度10公里或以上
1500米以下无云,无积雨云

METAR: FTTJ 151000Z 01005KT 010V090 CAVOK 31/03 Q1011 NOSIG

时间: 12:03 (11:03 UTC)

预报

该预报发布于6小时和3分钟前的05:00 UTC
预报有效从15日的 06点(UTC)到 16日的 12点(UTC)
风速4节,风向
能見度: 6000
短暂存在
从 15日的 07点(UTC)到 15日的 12点(UTC)
风速14节,风向东转东北
成为
从 15日的 17点(UTC)到 15日的 19点(UTC)
能見度: 4500
浮尘
几率 30% :
短暂存在
从 15日的 20点(UTC)到 16日的 06点(UTC)
能見度: 1500
浮尘
成为
从 16日的 06点(UTC)到 16日的 08点(UTC)
风速14节,风向东转东北

TAF: FTTJ 150500Z 1506/1612 36004KT 6000 NSC TEMPO 1507/1512 06014KT BECMG 1517/1519 4500 DU PROB30 TEMPO 1520/1606 1500 DU BECMG 1606/1608 06014KT

超过4000个机场的气象观测和天气预报(METAR&TAF报告)。

可查询的气象台以黄色和红色小点在地图上表示。

将鼠标移到小点上方,可查看气象台名称。

然后点击查看天气观测和预报。

如需切换地图:点击带黑十字的绿色按钮放大地图;点击带横线的绿色按钮缩小地图;或者点击绿色箭头查看邻近地区的地图。


METAR-TAF: